Terminal Aerodrome Forecast
Issued by NWS

Home | Current Version | Previous Version | Text Only | Print | Product List | Glossary On
Versions: 1 2 3 4 5 6 7 8 9 10 11 12 13 14 15 16 17
277
FTUS45 KRIW 282102 AAA
TAFCPR
TAF AMD
KCPR 282102Z 2821/2918 07016G28KT P6SM VCSH SCT018 BKN040
      TEMPO 2821/2824 3SM -SN OVC012
     FM290000 05015KT P6SM VCSH SCT014 OVC030
     FM290400 06009KT P6SM SCT016 OVC035
     FM291400 01008KT P6SM SCT025 BKN050=

USA.gov is the U.S. government's official web portal to all federal, state and local government web resources and services.